Time;durP1;ratioP1;P1;durP2;ratioP2;P2;SDS_P1;SDS_P2;PMS_P1;PMS_P2;Temp;Humidity;BMP_temperature;BMP_pressure;BME280_temperature;BME280_humidity;BME280_pressure;Samples;Min_cycle;Max_cycle;Signal;HPM_P1;HPM_P2
2024/04/01 00:01:03;;;;;;;12.83;3.00;;;;;;;13.36;61.17;96220.84;6299766;28;20197;-60
2024/04/01 00:04:04;;;;;;;14.50;3.00;;;;;;;13.87;58.45;96238.59;6299423;28;20187;-54
2024/04/01 00:07:05;;;;;;;17.17;3.33;;;;;;;14.11;56.79;96230.38;6299304;28;20193;-56
2024/04/01 00:10:07;;;;;;;19.43;4.00;;;;;;;14.35;55.77;96230.13;6299750;28;20205;-55
2024/04/01 00:13:08;;;;;;;19.07;3.30;;;;;;;14.21;59.36;96232.03;6303756;28;20526;-55
2024/04/01 00:16:09;;;;;;;14.10;3.50;;;;;;;14.19;57.53;96226.19;6295042;28;20189;-54
2024/04/01 00:19:10;;;;;;;12.73;3.17;;;;;;;14.25;58.14;96218.84;6306115;28;20539;-55
2024/04/01 00:22:11;;;;;;;19.63;3.33;;;;;;;14.20;58.17;96227.78;6301375;28;20360;-53
2024/04/01 00:25:12;;;;;;;16.87;4.20;;;;;;;13.98;60.98;96215.09;6299831;28;20198;-56
2024/04/01 00:28:13;;;;;;;16.87;3.20;;;;;;;13.91;59.91;96209.38;6302377;28;20235;-55
2024/04/01 00:31:14;;;;;;;15.03;3.37;;;;;;;13.73;62.16;96203.03;6299012;28;20755;-55
2024/04/01 00:34:15;;;;;;;24.23;4.63;;;;;;;13.67;61.45;96205.00;6299068;28;20193;-56
2024/04/01 00:37:16;;;;;;;16.83;4.17;;;;;;;13.51;64.31;96185.00;6303494;28;20204;-54
2024/04/01 00:40:17;;;;;;;18.23;4.10;;;;;;;13.27;63.97;96163.78;6296784;28;20190;-56
2024/04/01 00:43:18;;;;;;;20.17;4.00;;;;;;;13.34;65.07;96185.56;6298700;28;20201;-56
2024/04/01 00:46:20;;;;;;;21.03;4.20;;;;;;;13.47;64.45;96184.00;6300407;28;20208;-55
2024/04/01 00:49:23;;;;;;;17.70;4.17;;;;;;;13.38;65.58;96170.50;6305499;28;20190;-56
2024/04/01 00:52:26;;;;;;;20.13;4.07;;;;;;;13.29;66.19;96182.19;6300067;28;20194;-56
2024/04/01 00:55:28;;;;;;;16.17;4.40;;;;;;;13.20;66.69;96181.25;6306062;28;20195;-55
2024/04/01 00:58:30;;;;;;;20.87;3.20;;;;;;;13.11;68.59;96184.63;6307544;28;20658;-56
2024/04/01 01:01:33;;;;;;;21.00;3.83;;;;;;;13.07;68.98;96201.53;6302362;28;20189;-55
2024/04/01 01:04:36;;;;;;;17.43;3.93;;;;;;;12.91;70.37;96176.97;6304609;28;20192;-54
2024/04/01 01:07:37;;;;;;;18.60;4.17;;;;;;;12.95;71.18;96190.50;6304392;28;20797;-54
2024/04/01 01:10:39;;;;;;;21.47;4.80;;;;;;;13.07;70.69;96177.50;6307648;28;21011;-53
2024/04/01 01:13:40;;;;;;;22.00;4.20;;;;;;;13.03;71.42;96176.47;6316638;28;20288;-55
2024/04/01 01:16:41;;;;;;;20.13;3.47;;;;;;;13.07;71.37;96174.81;6310855;28;20770;-55
2024/04/01 01:19:43;;;;;;;20.70;4.20;;;;;;;12.98;72.89;96163.22;6321612;28;20218;-55
2024/04/01 01:22:44;;;;;;;16.30;4.00;;;;;;;12.90;72.72;96160.09;6318726;28;20747;-54
2024/04/01 01:25:45;;;;;;;17.83;4.63;;;;;;;12.83;73.24;96145.56;6298438;28;20716;-54
2024/04/01 01:28:50;;;;;;;26.53;4.17;;;;;;;13.00;73.13;96144.97;6307220;28;20264;-55
2024/04/01 01:31:52;;;;;;;22.97;4.87;;;;;;;13.12;72.01;96146.09;6315639;28;20189;-54
2024/04/01 01:34:53;;;;;;;19.17;4.33;;;;;;;13.30;71.82;96136.44;6312399;28;20193;-55
2024/04/01 01:37:54;;;;;;;18.07;4.23;;;;;;;13.35;72.48;96132.88;6312381;28;20266;-54
2024/04/01 01:40:55;;;;;;;22.53;4.23;;;;;;;13.43;71.93;96140.19;6291777;28;20201;-54
2024/04/01 01:43:56;;;;;;;27.27;5.07;;;;;;;13.33;72.58;96132.38;6307090;28;20609;-56
2024/04/01 01:46:58;;;;;;;30.80;4.87;;;;;;;13.41;72.27;96134.38;6293405;28;20201;-55
2024/04/01 01:50:04;;;;;;;25.77;5.20;;;;;;;13.46;71.51;96136.16;6307439;28;20742;-56
2024/04/01 01:53:05;;;;;;;29.77;5.87;;;;;;;13.61;71.17;96138.53;6313049;28;20759;-54
2024/04/01 01:56:06;;;;;;;29.53;6.10;;;;;;;13.54;71.94;96143.47;6310235;28;20685;-56
2024/04/01 01:59:08;;;;;;;23.23;5.20;;;;;;;13.50;72.80;96134.47;6306330;28;20684;-54
2024/04/01 02:02:09;;;;;;;31.73;6.13;;;;;;;13.41;73.28;96129.03;6306465;28;20189;-56
2024/04/01 02:05:10;;;;;;;30.77;6.53;;;;;;;13.36;73.75;96139.81;6311598;28;20216;-56
2024/04/01 02:08:11;;;;;;;24.70;6.50;;;;;;;13.23;74.43;96125.34;6312407;28;20554;-56
2024/04/01 02:11:15;;;;;;;33.30;5.77;;;;;;;13.18;74.68;96138.78;6307542;28;20200;-54
2024/04/01 02:14:16;;;;;;;32.97;6.57;;;;;;;13.15;74.73;96144.69;6315068;28;20205;-57
2024/04/01 02:17:17;;;;;;;26.20;5.40;;;;;;;12.99;76.38;96122.81;6310542;28;20194;-54
2024/04/01 02:20:18;;;;;;;28.27;6.13;;;;;;;12.87;76.92;96122.50;6304050;28;20228;-55
2024/04/01 02:23:19;;;;;;;27.97;5.27;;;;;;;12.77;77.67;96136.84;6288103;28;20198;-55
2024/04/01 02:26:21;;;;;;;23.90;5.50;;;;;;;12.85;78.40;96122.78;6302043;28;20248;-53
2024/04/01 02:29:22;;;;;;;23.60;5.80;;;;;;;12.90;77.19;96141.41;6310493;28;20695;-55
2024/04/01 02:32:23;;;;;;;30.30;6.63;;;;;;;12.87;77.58;96136.66;6304883;28;20189;-57
2024/04/01 02:35:24;;;;;;;23.60;4.87;;;;;;;12.83;77.51;96138.31;6304338;28;20193;-56
2024/04/01 02:38:25;;;;;;;36.03;6.77;;;;;;;12.82;78.05;96130.63;6301962;28;20194;-56
2024/04/01 02:41:26;;;;;;;34.97;6.93;;;;;;;12.81;78.49;96110.31;6305371;28;20197;-55
2024/04/01 02:44:27;;;;;;;34.77;7.10;;;;;;;12.78;78.89;96113.56;6310932;28;20208;-54
2024/04/01 02:47:28;;;;;;;35.23;6.73;;;;;;;12.73;79.56;96108.31;6303852;28;20209;-56
2024/04/01 02:50:30;;;;;;;30.17;5.70;;;;;;;12.65;79.76;96097.22;6312063;28;20188;-55
2024/04/01 02:53:31;;;;;;;27.37;7.77;;;;;;;12.61;81.08;96098.09;6308690;28;20239;-55
2024/04/01 02:56:33;;;;;;;33.93;6.67;;;;;;;12.62;81.24;96092.47;6304905;28;20186;-54
2024/04/01 02:59:34;;;;;;;27.93;5.77;;;;;;;12.65;81.00;96099.88;6301271;28;20194;-55
2024/04/01 03:02:35;;;;;;;30.87;6.47;;;;;;;12.68;81.55;96100.41;6301922;28;20189;-56
2024/04/01 03:05:38;;;;;;;38.93;7.37;;;;;;;12.81;80.43;96079.03;6312753;28;20212;-55
2024/04/01 03:08:39;;;;;;;29.13;6.97;;;;;;;12.90;81.10;96060.44;6300682;28;20198;-55
2024/04/01 03:11:41;;;;;;;35.90;7.47;;;;;;;13.13;79.14;96051.44;6309195;28;20719;-54
2024/04/01 03:14:42;;;;;;;31.53;7.30;;;;;;;13.25;78.37;96037.59;6301229;28;20720;-56
2024/04/01 03:17:44;;;;;;;36.90;7.37;;;;;;;13.23;78.95;96017.59;6300748;28;20190;-54
2024/04/01 03:20:45;;;;;;;39.83;7.87;;;;;;;13.36;78.09;96038.97;6300397;28;20643;-54
2024/04/01 03:23:48;;;;;;;42.73;7.73;;;;;;;13.60;77.12;96001.28;6308021;28;20197;-54
2024/04/01 03:26:49;;;;;;;43.33;8.03;;;;;;;13.91;74.56;95992.53;6307070;28;20215;-56
2024/04/01 03:29:50;;;;;;;46.17;7.70;;;;;;;14.04;73.85;95994.38;6301328;28;20197;-56
2024/04/01 03:32:51;;;;;;;56.37;9.50;;;;;;;14.04;74.51;95991.69;6313122;28;20177;-54
2024/04/01 03:35:56;;;;;;;43.07;8.87;;;;;;;13.99;74.55;95997.16;6303555;28;20186;-54
2024/04/01 03:38:57;;;;;;;47.27;8.03;;;;;;;14.11;73.85;96032.19;6302047;28;20198;-54
2024/04/01 03:41:58;;;;;;;46.30;8.20;;;;;;;14.17;73.56;96060.44;6283517;28;20625;-55
2024/04/01 03:44:59;;;;;;;46.57;9.30;;;;;;;14.31;73.64;96068.41;6299408;28;20646;-53
2024/04/01 03:48:00;;;;;;;45.07;8.73;;;;;;;14.41;73.36;96059.34;6313828;28;20190;-56
2024/04/01 03:51:01;;;;;;;43.43;8.40;;;;;;;14.49;73.42;96045.25;6304575;28;20189;-56
2024/04/01 03:54:02;;;;;;;45.83;8.60;;;;;;;14.48;74.41;96059.72;6305121;28;20189;-56
2024/04/01 03:57:04;;;;;;;38.60;8.37;;;;;;;14.42;75.10;96077.78;6300176;28;20234;-56
2024/04/01 04:00:06;;;;;;;49.93;8.40;;;;;;;14.39;76.00;96082.97;6299990;28;20239;-55
2024/04/01 04:03:08;;;;;;;39.43;7.87;;;;;;;14.39;76.00;96091.81;6310181;28;20832;-57
2024/04/01 04:06:11;;;;;;;39.50;7.90;;;;;;;14.32;76.79;96091.41;6304698;28;20201;-56
2024/04/01 04:09:16;;;;;;;35.63;8.53;;;;;;;14.28;77.34;96119.13;6295461;28;20209;-56
2024/04/01 04:12:17;;;;;;;48.13;9.80;;;;;;;14.25;77.73;96149.22;6307296;28;20191;-57
2024/04/01 04:15:19;;;;;;;44.90;8.83;;;;;;;14.18;78.54;96157.63;6301322;28;20185;-56
2024/04/01 04:18:20;;;;;;;35.87;9.00;;;;;;;14.13;78.77;96163.09;6302760;28;20229;-56
2024/04/01 04:21:21;;;;;;;42.53;8.93;;;;;;;14.12;79.71;96167.66;6301672;28;20204;-55
2024/04/01 04:24:25;;;;;;;47.73;8.80;;;;;;;14.18;79.19;96161.09;6321500;28;20192;-56
2024/04/01 04:27:27;;;;;;;47.67;8.73;;;;;;;14.08;80.20;96139.91;6302729;28;20239;-57
2024/04/01 04:30:28;;;;;;;38.53;8.40;;;;;;;14.05;80.49;96147.78;6308680;28;20280;-56
2024/04/01 04:33:31;;;;;;;42.53;9.20;;;;;;;14.01;80.37;96117.34;6303207;28;20318;-56
2024/04/01 04:36:33;;;;;;;50.03;9.73;;;;;;;14.11;80.40;96125.13;6299273;28;20614;-56
2024/04/01 04:39:35;;;;;;;48.73;8.67;;;;;;;14.08;80.52;96118.47;6301976;28;20202;-56
2024/04/01 04:42:36;;;;;;;40.70;9.33;;;;;;;14.03;81.25;96105.22;6302579;28;20184;-54
2024/04/01 04:45:47;;;;;;;47.03;8.83;;;;;;;14.09;80.46;96097.88;6300830;28;20265;-55
2024/04/01 04:48:49;;;;;;;44.60;8.40;;;;;;;14.07;80.57;96095.47;6298562;28;20180;-56
2024/04/01 04:51:50;;;;;;;39.97;8.57;;;;;;;14.09;80.31;96084.50;6282490;28;20190;-56
2024/04/01 04:54:51;;;;;;;39.13;8.20;;;;;;;13.99;80.74;96066.78;6310473;28;20190;-56
2024/04/01 04:57:52;;;;;;;42.60;9.47;;;;;;;14.13;79.86;96099.63;6298206;28;20559;-54
2024/04/01 05:00:53;;;;;;;42.77;9.27;;;;;;;13.99;81.44;96104.25;6304918;28;20193;-56
2024/04/01 05:03:55;;;;;;;43.57;9.20;;;;;;;13.95;81.37;96081.84;6304293;28;20192;-55
2024/04/01 05:06:56;;;;;;;42.90;9.47;;;;;;;13.90;81.66;96093.47;6289799;28;20227;-56
2024/04/01 05:09:57;;;;;;;36.33;9.57;;;;;;;13.89;81.75;96083.84;6307938;28;20194;-56
2024/04/01 05:12:59;;;;;;;40.90;9.67;;;;;;;13.99;80.87;96079.34;6302027;28;20505;-56
2024/04/01 05:16:00;;;;;;;41.17;8.73;;;;;;;13.92;80.87;96093.94;6299834;28;20196;-56
2024/04/01 05:19:01;;;;;;;45.47;8.90;;;;;;;13.86;80.49;96095.16;6309089;28;20225;-54
2024/04/01 05:22:02;;;;;;;46.43;9.30;;;;;;;13.89;79.91;96102.59;6298381;28;20565;-55
2024/04/01 05:25:03;;;;;;;47.77;8.67;;;;;;;13.92;79.08;96107.31;6303313;28;20216;-56
2024/04/01 05:28:05;;;;;;;43.50;8.20;;;;;;;13.88;80.33;96092.97;6301558;28;20190;-57
2024/04/01 05:31:06;;;;;;;41.23;9.37;;;;;;;13.82;80.28;96112.91;6298161;28;20673;-54
2024/04/01 05:34:09;;;;;;;48.67;9.70;;;;;;;13.79;79.71;96086.75;6304498;28;20197;-56
2024/04/01 05:37:10;;;;;;;49.17;9.73;;;;;;;13.93;78.64;96081.34;6306364;28;20204;-56
2024/04/01 05:40:12;;;;;;;49.00;9.63;;;;;;;13.95;78.95;96095.25;6299114;28;20775;-55
2024/04/01 05:43:13;;;;;;;48.90;9.80;;;;;;;13.90;78.90;96096.13;6298184;28;20201;-55
2024/04/01 05:46:15;;;;;;;51.17;9.30;;;;;;;13.96;77.84;96093.34;6299940;28;20209;-54
2024/04/01 05:49:16;;;;;;;50.70;9.70;;;;;;;13.86;78.47;96079.09;6305436;28;20194;-56
2024/04/01 05:52:17;;;;;;;45.83;9.93;;;;;;;13.78;78.47;96063.75;6302474;28;20654;-55
2024/04/01 05:55:19;;;;;;;42.33;9.27;;;;;;;13.89;78.95;96069.66;6302485;28;20197;-55
2024/04/01 05:58:20;;;;;;;51.60;8.77;;;;;;;13.98;78.67;96075.09;6299796;28;20798;-55
2024/04/01 06:01:21;;;;;;;46.70;8.67;;;;;;;13.97;78.24;96068.94;6306275;28;20697;-55
2024/04/01 06:04:26;;;;;;;42.17;8.87;;;;;;;14.02;77.77;96079.53;6304257;28;20826;-53
2024/04/01 06:07:28;;;;;;;48.43;9.67;;;;;;;14.11;76.86;96080.41;6306255;28;20193;-55
2024/04/01 06:10:29;;;;;;;41.13;9.10;;;;;;;14.12;77.76;96071.25;6302409;28;20197;-55
2024/04/01 06:13:30;;;;;;;45.77;8.53;;;;;;;14.30;76.78;96060.69;6317510;28;20191;-56
2024/04/01 06:16:31;;;;;;;46.00;8.77;;;;;;;14.31;76.63;96046.97;6303102;28;20202;-55
2024/04/01 06:19:33;;;;;;;52.00;10.00;;;;;;;14.33;77.70;96060.06;6293831;28;20226;-55
2024/04/01 06:22:34;;;;;;;51.63;9.53;;;;;;;14.36;77.31;96044.19;6304472;28;20197;-55
2024/04/01 06:25:38;;;;;;;44.70;10.07;;;;;;;14.46;75.68;96046.59;6302520;28;20657;-56
2024/04/01 06:28:40;;;;;;;54.97;9.70;;;;;;;14.46;75.86;96029.75;6288020;28;20561;-54
2024/04/01 06:31:41;;;;;;;56.33;8.67;;;;;;;14.51;76.36;96026.16;6285911;28;20197;-56
2024/04/01 06:34:42;;;;;;;50.23;9.70;;;;;;;14.56;75.16;96028.72;6301730;28;20533;-54
2024/04/01 06:37:43;;;;;;;47.30;10.37;;;;;;;14.65;75.23;96024.19;6285857;28;20191;-55
2024/04/01 06:40:44;;;;;;;40.27;9.20;;;;;;;14.68;74.95;96013.66;6287910;28;20707;-55
2024/04/01 06:43:45;;;;;;;57.33;10.33;;;;;;;14.77;74.28;96026.28;6287977;28;20252;-54
2024/04/01 06:46:50;;;;;;;48.77;9.53;;;;;;;14.76;74.90;96012.09;6285430;28;20210;-55
2024/04/01 06:49:51;;;;;;;45.20;9.80;;;;;;;15.03;75.62;96026.41;6294323;28;20190;-55
2024/04/01 06:52:52;;;;;;;52.53;10.60;;;;;;;15.06;74.56;96023.88;6283044;28;20200;-54
2024/04/01 06:55:53;;;;;;;46.67;9.97;;;;;;;15.17;71.93;96019.00;6288067;28;20274;-53
2024/04/01 06:58:54;;;;;;;42.20;9.80;;;;;;;15.22;72.33;96024.22;6292578;28;20208;-53
2024/04/01 07:01:55;;;;;;;51.13;9.70;;;;;;;15.22;73.30;96018.88;6291106;28;20186;-53
2024/04/01 07:04:57;;;;;;;44.67;9.47;;;;;;;15.27;73.55;96023.28;6295002;28;20198;-53
2024/04/01 07:07:59;;;;;;;43.70;9.33;;;;;;;15.37;71.34;96023.81;6289909;28;20198;-56
2024/04/01 07:11:01;;;;;;;57.77;9.80;;;;;;;15.59;71.32;96012.16;6289862;28;20643;-53
2024/04/01 07:14:02;;;;;;;39.30;9.13;;;;;;;15.63;70.01;96015.00;6294725;28;20205;-53
2024/04/01 07:17:03;;;;;;;49.50;9.97;;;;;;;15.61;71.43;95998.41;6299220;28;20278;-52
2024/04/01 07:20:05;;;;;;;44.73;9.93;;;;;;;15.69;70.19;96003.03;6290307;28;20272;-55
2024/04/01 07:23:07;;;;;;;51.20;10.40;;;;;;;15.91;69.28;96016.31;6294166;28;20554;-55
2024/04/01 07:26:08;;;;;;;49.50;10.23;;;;;;;16.04;70.16;96009.19;6288709;28;20734;-54
2024/04/01 07:29:09;;;;;;;48.90;10.07;;;;;;;16.20;68.46;96012.94;6296930;28;20776;-54
2024/04/01 07:32:10;;;;;;;49.50;10.83;;;;;;;16.30;69.48;96002.97;6285401;28;20672;-55
2024/04/01 07:35:11;;;;;;;38.63;8.63;;;;;;;16.36;70.46;96002.50;6297194;28;20194;-54
2024/04/01 07:38:12;;;;;;;50.50;9.93;;;;;;;16.38;67.35;95996.81;6290708;28;20715;-54
2024/04/01 07:41:13;;;;;;;54.63;9.50;;;;;;;16.42;67.70;96000.44;6288216;28;20248;-55
2024/04/01 07:44:14;;;;;;;46.43;9.67;;;;;;;16.55;67.25;95993.25;6294076;28;20198;-54
2024/04/01 07:47:16;;;;;;;57.73;11.10;;;;;;;16.60;67.27;95998.47;6297561;28;20305;-55
2024/04/01 07:50:17;;;;;;;57.70;10.57;;;;;;;16.72;65.88;95991.34;6290442;28;20240;-56
2024/04/01 07:53:18;;;;;;;49.07;10.20;;;;;;;16.76;64.92;96003.03;6297292;28;20247;-55
2024/04/01 07:56:21;;;;;;;48.83;9.37;;;;;;;16.88;64.53;95998.88;6293052;28;20213;-53
2024/04/01 07:59:26;;;;;;;55.20;10.73;;;;;;;16.93;65.08;95998.69;6293368;28;20692;-54
2024/04/01 08:02:27;;;;;;;43.73;10.03;;;;;;;17.07;63.55;96006.53;6290317;28;20185;-55
2024/04/01 08:05:28;;;;;;;50.33;10.63;;;;;;;17.05;66.52;96009.56;6291142;28;20202;-56
2024/04/01 08:08:29;;;;;;;49.50;10.57;;;;;;;17.09;64.62;96010.47;6298070;28;20182;-55
2024/04/01 08:11:30;;;;;;;44.13;10.40;;;;;;;17.18;63.39;95992.38;6290959;28;20647;-55
2024/04/01 08:14:31;;;;;;;54.93;12.40;;;;;;;17.09;63.44;95982.78;6290873;28;20316;-54
2024/04/01 08:17:32;;;;;;;62.70;11.63;;;;;;;17.13;64.33;95984.50;6291977;28;20197;-55
2024/04/01 08:20:34;;;;;;;61.93;10.93;;;;;;;17.24;63.03;95974.16;6290391;28;20230;-54
2024/04/01 08:23:35;;;;;;;48.43;10.47;;;;;;;17.14;62.79;95978.03;6290865;28;20195;-54
2024/04/01 08:26:37;;;;;;;54.13;10.60;;;;;;;17.21;61.92;95977.50;6277966;28;20198;-54
2024/04/01 08:29:39;;;;;;;41.50;9.73;;;;;;;17.17;62.11;95977.38;6284046;28;20662;-55
2024/04/01 08:32:40;;;;;;;47.83;11.20;;;;;;;17.18;64.34;95970.88;6283067;28;20175;-54
2024/04/01 08:35:41;;;;;;;62.10;10.83;;;;;;;17.08;62.40;95949.72;6282961;28;20564;-54
2024/04/01 08:38:42;;;;;;;46.63;9.53;;;;;;;17.20;62.52;95965.16;6282766;28;20186;-54
2024/04/01 08:41:48;;;;;;;43.57;9.50;;;;;;;17.35;62.69;95947.66;6287897;28;20688;-57
2024/04/01 08:44:50;;;;;;;54.87;9.83;;;;;;;17.45;61.90;95958.03;6277633;28;20210;-54
2024/04/01 08:48:02;;;;;;;47.60;9.50;;;;;;;17.48;61.61;95941.22;6284316;28;20194;-56
2024/04/01 08:51:05;;;;;;;40.60;9.83;;;;;;;17.62;62.40;95932.88;6296613;28;20258;-56
2024/04/01 08:54:13;;;;;;;48.53;10.47;;;;;;;17.78;61.20;95925.78;6290280;28;20206;-57
2024/04/01 08:57:14;;;;;;;49.63;10.43;;;;;;;17.90;61.71;95930.44;6272394;28;20202;-55
2024/04/01 09:00:15;;;;;;;54.80;11.23;;;;;;;17.96;60.03;95916.44;6287225;28;20201;-55
2024/04/01 09:03:16;;;;;;;50.07;10.33;;;;;;;18.15;59.06;95902.44;6289393;28;20560;-54
2024/04/01 09:06:18;;;;;;;52.50;9.93;;;;;;;18.27;58.70;95907.88;6287553;28;20208;-55
2024/04/01 09:09:19;;;;;;;54.77;10.90;;;;;;;18.20;59.34;95902.22;6278295;28;20709;-55
2024/04/01 09:12:21;;;;;;;65.33;11.80;;;;;;;18.29;59.82;95881.34;6297423;28;20703;-56
2024/04/01 09:15:22;;;;;;;49.83;10.63;;;;;;;18.54;58.30;95889.47;6288478;28;20193;-54
2024/04/01 09:18:23;;;;;;;55.47;10.67;;;;;;;18.52;58.14;95879.03;6295729;28;20255;-55
2024/04/01 09:21:25;;;;;;;58.90;10.60;;;;;;;18.56;58.03;95865.63;6292896;28;20582;-57
2024/04/01 09:24:26;;;;;;;54.60;9.97;;;;;;;18.71;57.67;95845.31;6282832;28;20198;-54
2024/04/01 09:27:27;;;;;;;53.63;9.87;;;;;;;18.93;57.20;95836.75;6293353;28;20240;-57
2024/04/01 09:30:28;;;;;;;55.27;10.33;;;;;;;19.21;56.65;95836.00;6295254;28;20186;-56
2024/04/01 09:33:31;;;;;;;52.67;9.57;;;;;;;19.33;56.44;95823.25;6294056;28;20650;-56
2024/04/01 09:36:32;;;;;;;36.17;9.63;;;;;;;19.52;55.16;95819.91;6294084;28;20618;-55
2024/04/01 09:39:34;;;;;;;45.20;9.37;;;;;;;19.80;55.25;95817.22;6289161;28;20194;-56
2024/04/01 09:42:36;;;;;;;46.93;9.97;;;;;;;19.95;53.52;95820.25;6293795;28;20673;-55
2024/04/01 09:45:37;;;;;;;46.97;9.13;;;;;;;20.10;54.13;95800.59;6295710;28;20198;-56
2024/04/01 09:48:39;;;;;;;44.50;9.57;;;;;;;20.35;52.30;95809.28;6298153;28;20737;-56
2024/04/01 09:51:42;;;;;;;53.13;11.23;;;;;;;20.42;51.70;95809.44;6286927;28;20201;-56
2024/04/01 09:54:49;;;;;;;44.67;8.53;;;;;;;20.74;49.56;95812.13;6284210;28;20767;-57
2024/04/01 09:58:35;;;;;;;46.33;9.43;;;;;;;21.03;47.33;95806.22;6299567;28;20662;-56
2024/04/01 10:02:00;;;;;;;39.70;8.17;;;;;;;21.45;45.32;95788.47;6293259;28;20201;-56
2024/04/01 10:05:05;;;;;;;54.83;9.10;;;;;;;21.64;44.19;95788.44;6288608;28;20561;-55
2024/04/01 10:08:16;;;;;;;41.50;8.20;;;;;;;21.87;42.95;95791.16;6289868;28;20546;-55
2024/04/01 10:11:56;;;;;;;42.67;8.87;;;;;;;22.02;42.37;95778.63;6301358;28;20228;-58
2024/04/01 10:15:23;;;;;;;51.63;9.20;;;;;;;22.19;40.90;95777.41;6288408;28;20199;-58
2024/04/01 10:18:49;;;;;;;52.90;9.43;;;;;;;22.22;41.17;95790.25;6291893;28;20234;-56
2024/04/01 10:22:10;;;;;;;39.37;8.90;;;;;;;22.43;41.31;95782.44;6287537;28;20243;-55
2024/04/01 10:25:23;;;;;;;49.60;9.33;;;;;;;22.44;40.48;95789.41;6285050;28;20577;-55
2024/04/01 10:28:55;;;;;;;43.77;8.87;;;;;;;22.47;40.30;95785.22;6295198;28;20186;-56
2024/04/01 10:32:30;;;;;;;49.40;8.83;;;;;;;22.57;40.16;95784.59;6295840;28;20596;-57
2024/04/01 10:35:57;;;;;;;47.97;9.17;;;;;;;22.73;40.01;95776.28;6291193;28;20190;-55
2024/04/01 10:39:43;;;;;;;41.43;8.83;;;;;;;22.90;39.04;95754.81;6293799;28;20202;-55
2024/04/01 10:42:47;;;;;;;44.90;8.97;;;;;;;23.16;37.78;95762.13;6290470;28;20198;-57
2024/04/01 10:46:09;;;;;;;47.97;9.43;;;;;;;23.37;38.85;95769.72;6299489;28;20675;-54
2024/04/01 10:49:32;;;;;;;50.93;8.60;;;;;;;23.71;37.73;95763.53;6288037;28;20195;-57
2024/04/01 10:52:54;;;;;;;47.03;8.97;;;;;;;23.56;37.98;95762.56;6292558;28;20183;-56
2024/04/01 10:56:17;;;;;;;54.55;8.60;;;;;;;23.61;37.25;95764.94;6287474;28;20194;-55
2024/04/01 11:00:01;;;;;;;44.58;9.30;;;;;;;23.71;38.19;95749.94;6290896;28;20207;-57
2024/04/01 11:03:14;;;;;;;40.58;8.07;;;;;;;23.94;38.83;95734.22;6287568;28;20191;-57
2024/04/01 11:06:42;;;;;;;39.22;8.43;;;;;;;24.20;36.22;95734.03;6288613;28;20207;-56
2024/04/01 11:10:08;;;;;;;45.97;8.15;;;;;;;24.63;29.73;95738.97;6298669;28;20190;-56
2024/04/01 11:13:18;;;;;;;32.75;6.63;;;;;;;24.81;33.47;95750.75;6288179;28;20195;-57
2024/04/01 11:16:22;;;;;;;48.53;8.57;;;;;;;25.02;27.94;95738.41;6282154;28;20183;-57
2024/04/01 11:19:32;;;;;;;36.97;8.68;;;;;;;25.11;30.81;95758.72;6288716;28;20222;-56
2024/04/01 11:23:01;;;;;;;40.90;7.78;;;;;;;25.30;26.54;95773.97;6291980;28;20702;-56
2024/04/01 11:26:33;;;;;;;41.88;8.25;;;;;;;25.48;28.74;95782.22;6287174;28;20206;-55
2024/04/01 11:29:40;;;;;;;39.90;8.52;;;;;;;25.51;28.98;95794.28;6283073;28;20281;-56
2024/04/01 11:32:46;;;;;;;42.92;8.70;;;;;;;25.46;29.34;95795.44;6279215;28;20225;-55
2024/04/01 11:35:55;;;;;;;55.95;10.48;;;;;;;25.53;26.18;95811.84;6285710;28;20195;-54
2024/04/01 11:39:09;;;;;;;43.60;9.40;;;;;;;25.65;25.97;95806.03;6297568;28;20195;-54
2024/04/01 11:42:13;;;;;;;38.10;8.88;;;;;;;25.74;30.08;95809.16;6287159;28;20202;-54
2024/04/01 11:45:19;;;;;;;43.95;9.15;;;;;;;25.56;25.11;95804.81;6292923;28;20225;-55
2024/04/01 11:48:21;;;;;;;49.08;10.45;;;;;;;25.67;27.45;95789.28;6291736;28;20190;-55
2024/04/01 11:51:36;;;;;;;44.67;9.88;;;;;;;25.94;24.20;95800.66;6272864;28;20186;-54
2024/04/01 11:54:37;;;;;;;46.88;9.30;;;;;;;25.89;27.82;95788.19;6295721;28;20233;-54
2024/04/01 11:57:39;;;;;;;40.25;9.48;;;;;;;26.26;24.87;95802.66;6290224;28;20236;-54
2024/04/01 12:00:53;;;;;;;53.38;10.32;;;;;;;26.45;25.56;95800.34;6268787;28;20278;-54
2024/04/01 12:03:54;;;;;;;49.42;10.88;;;;;;;26.40;24.39;95803.44;6297662;28;20198;-58
2024/04/01 12:06:55;;;;;;;47.20;10.10;;;;;;;26.12;23.45;95792.50;6293089;28;20210;-55
2024/04/01 12:10:01;;;;;;;46.33;10.35;;;;;;;26.22;27.40;95778.06;6292055;28;20236;-55
2024/04/01 12:13:02;;;;;;;49.33;10.35;;;;;;;26.39;25.34;95785.47;6289841;28;20197;-56
2024/04/01 12:16:07;;;;;;;49.88;9.95;;;;;;;26.45;25.15;95786.69;6286311;28;20190;-54
2024/04/01 12:19:12;;;;;;;44.75;10.40;;;;;;;26.53;24.98;95781.22;6284903;28;20230;-54
2024/04/01 12:22:13;;;;;;;52.65;10.13;;;;;;;26.44;25.53;95767.94;6295204;28;20187;-55
2024/04/01 12:25:15;;;;;;;65.45;11.45;;;;;;;26.46;23.18;95771.09;6275253;28;20221;-55
2024/04/01 12:28:19;;;;;;;47.28;10.32;;;;;;;26.69;25.65;95782.34;6288565;28;20213;-56
2024/04/01 12:31:23;;;;;;;42.05;9.32;;;;;;;26.78;23.55;95768.28;6293096;28;20190;-56
2024/04/01 12:34:24;;;;;;;60.33;10.25;;;;;;;26.86;23.95;95791.69;6294623;28;20186;-56
2024/04/01 12:37:25;;;;;;;53.85;11.57;;;;;;;26.98;23.28;95777.59;6289234;28;20190;-55
2024/04/01 12:40:26;;;;;;;47.10;11.02;;;;;;;27.08;23.02;95772.53;6290303;28;20206;-54
2024/04/01 12:43:29;;;;;;;41.20;10.13;;;;;;;26.88;23.12;95751.09;6310118;28;20189;-55
2024/04/01 12:46:30;;;;;;;50.33;11.23;;;;;;;26.88;23.80;95763.97;6303856;28;20206;-55
2024/04/01 12:49:32;;;;;;;62.50;12.90;;;;;;;26.86;26.12;95778.03;6295340;28;20194;-56
2024/04/01 12:53:13;;;;;;;60.70;12.07;;;;;;;26.72;26.78;95770.63;6290071;28;20717;-55
2024/04/01 12:56:23;;;;;;;57.05;11.93;;;;;;;26.40;27.48;95773.41;6293031;28;20198;-55
2024/04/01 12:59:52;;;;;;;50.58;10.98;;;;;;;26.32;29.09;95763.66;6302749;28;20643;-56
2024/04/01 13:03:12;;;;;;;64.57;13.15;;;;;;;26.23;27.97;95746.88;6275837;28;20190;-54
2024/04/01 13:06:42;;;;;;;68.20;13.20;;;;;;;26.10;29.45;95745.69;6266484;28;20229;-56
2024/04/01 13:09:50;;;;;;;60.45;12.75;;;;;;;25.85;28.78;95737.50;6291726;28;20194;-54
2024/04/01 13:13:03;;;;;;;66.55;13.20;;;;;;;25.56;28.98;95753.00;6295790;28;20213;-53
2024/04/01 13:16:31;;;;;;;62.90;12.82;;;;;;;25.32;30.52;95752.56;6292226;28;20198;-57
2024/04/01 13:19:45;;;;;;;59.03;14.20;;;;;;;25.41;29.40;95758.44;6289132;28;20225;-55
2024/04/01 13:23:06;;;;;;;70.95;12.85;;;;;;;25.25;31.89;95749.81;6279570;28;20191;-55
2024/04/01 13:26:19;;;;;;;71.88;13.85;;;;;;;25.12;30.23;95751.31;6299703;28;20210;-57
2024/04/01 13:29:34;;;;;;;78.55;13.57;;;;;;;24.98;31.29;95753.97;6282850;28;20673;-55
2024/04/01 13:32:49;;;;;;;76.85;15.73;;;;;;;24.89;29.54;95765.22;6271693;28;20198;-54
2024/04/01 13:36:13;;;;;;;66.60;13.98;;;;;;;24.49;29.96;95755.25;6282777;28;20188;-56
2024/04/01 13:39:20;;;;;;;74.00;15.38;;;;;;;24.51;30.59;95744.75;6299139;28;20198;-54
2024/04/01 13:43:05;;;;;;;77.40;14.40;;;;;;;24.55;29.74;95746.34;6311138;28;20564;-54
2024/04/01 13:46:19;;;;;;;72.65;15.48;;;;;;;24.58;29.30;95742.88;6302569;28;20229;-56
2024/04/01 13:49:51;;;;;;;80.18;15.68;;;;;;;24.56;29.04;95742.44;6285832;28;20202;-55
2024/04/01 13:53:13;;;;;;;64.35;16.10;;;;;;;24.45;29.83;95752.50;6294680;28;20190;-54
2024/04/01 13:56:32;;;;;;;79.40;16.10;;;;;;;24.47;28.69;95752.09;6305081;28;20187;-55
2024/04/01 13:59:44;;;;;;;72.78;16.65;;;;;;;24.35;29.00;95750.47;6277394;28;20187;-56
2024/04/01 14:02:58;;;;;;;68.03;14.55;;;;;;;24.41;29.29;95733.41;6285001;28;20191;-55
2024/04/01 14:06:05;;;;;;;72.78;16.50;;;;;;;24.28;29.09;95747.66;6283262;28;20264;-57
2024/04/01 14:09:22;;;;;;;73.07;16.33;;;;;;;24.21;29.41;95748.41;6285053;28;20233;-56
2024/04/01 14:12:29;;;;;;;72.03;15.80;;;;;;;23.96;30.91;95752.88;6286403;28;20188;-56
2024/04/01 14:15:47;;;;;;;34.55;8.15;;;;;;;23.22;32.33;95789.75;6297059;28;20196;-54
2024/04/01 14:18:54;;;;;;;45.47;9.40;;;;;;;22.96;33.52;95785.16;6275907;28;20234;-56